sensor_id;sensor_type;location;lat;lon;timestamp;temperature;humidity
28358;DHT22;15605;48.114;11.522;2024-02-26T00:02:03;12.10;52.60
28358;DHT22;15605;48.114;11.522;2024-02-26T00:04:34;12.10;52.50
28358;DHT22;15605;48.114;11.522;2024-02-26T00:07:03;12.10;52.40
28358;DHT22;15605;48.114;11.522;2024-02-26T00:09:38;12.10;52.20
28358;DHT22;15605;48.114;11.522;2024-02-26T00:12:11;12.10;52.20
28358;DHT22;15605;48.114;11.522;2024-02-26T00:14:51;12.10;52.20
28358;DHT22;15605;48.114;11.522;2024-02-26T00:17:38;12.10;52.20
28358;DHT22;15605;48.114;11.522;2024-02-26T00:20:55;12.10;52.20
28358;DHT22;15605;48.114;11.522;2024-02-26T00:23:55;12.00;52.10
28358;DHT22;15605;48.114;11.522;2024-02-26T00:26:36;12.00;52.10
28358;DHT22;15605;48.114;11.522;2024-02-26T00:29:15;12.10;52.00
28358;DHT22;15605;48.114;11.522;2024-02-26T00:32:18;12.00;51.80
28358;DHT22;15605;48.114;11.522;2024-02-26T00:34:58;12.10;51.70
28358;DHT22;15605;48.114;11.522;2024-02-26T00:37:55;12.00;51.60
28358;DHT22;15605;48.114;11.522;2024-02-26T00:40:51;12.00;51.60
28358;DHT22;15605;48.114;11.522;2024-02-26T00:43:58;12.00;51.60
28358;DHT22;15605;48.114;11.522;2024-02-26T00:46:51;12.00;51.50
28358;DHT22;15605;48.114;11.522;2024-02-26T00:49:34;12.00;51.40
28358;DHT22;15605;48.114;11.522;2024-02-26T00:52:23;12.00;51.40
28358;DHT22;15605;48.114;11.522;2024-02-26T00:55:05;12.00;51.90
28358;DHT22;15605;48.114;11.522;2024-02-26T00:57:53;12.10;51.30
28358;DHT22;15605;48.114;11.522;2024-02-26T01:00:59;12.10;51.30
28358;DHT22;15605;48.114;11.522;2024-02-26T01:04:07;12.00;51.30
28358;DHT22;15605;48.114;11.522;2024-02-26T01:06:51;12.00;51.80
28358;DHT22;15605;48.114;11.522;2024-02-26T01:09:47;12.00;51.20
28358;DHT22;15605;48.114;11.522;2024-02-26T01:12:40;12.00;51.20
28358;DHT22;15605;48.114;11.522;2024-02-26T01:15:28;12.00;51.10
28358;DHT22;15605;48.114;11.522;2024-02-26T01:18:16;12.00;51.00
28358;DHT22;15605;48.114;11.522;2024-02-26T01:21:02;12.00;51.00
28358;DHT22;15605;48.114;11.522;2024-02-26T01:23:58;12.00;50.90
28358;DHT22;15605;48.114;11.522;2024-02-26T01:26:51;12.00;50.90
28358;DHT22;15605;48.114;11.522;2024-02-26T01:29:45;12.00;50.90
28358;DHT22;15605;48.114;11.522;2024-02-26T01:32:55;12.00;50.80
28358;DHT22;15605;48.114;11.522;2024-02-26T01:35:49;12.00;50.80
28358;DHT22;15605;48.114;11.522;2024-02-26T01:38:32;12.00;50.70
28358;DHT22;15605;48.114;11.522;2024-02-26T01:41:20;12.00;50.80
28358;DHT22;15605;48.114;11.522;2024-02-26T01:44:12;12.00;50.70
28358;DHT22;15605;48.114;11.522;2024-02-26T01:47:01;12.00;50.80
28358;DHT22;15605;48.114;11.522;2024-02-26T01:49:44;12.00;50.80
28358;DHT22;15605;48.114;11.522;2024-02-26T01:52:26;11.90;50.80
28358;DHT22;15605;48.114;11.522;2024-02-26T01:55:09;12.00;50.90
28358;DHT22;15605;48.114;11.522;2024-02-26T01:57:52;11.90;50.80
28358;DHT22;15605;48.114;11.522;2024-02-26T02:00:46;12.00;50.70
28358;DHT22;15605;48.114;11.522;2024-02-26T02:03:36;12.00;50.60
28358;DHT22;15605;48.114;11.522;2024-02-26T02:06:19;12.00;50.50
28358;DHT22;15605;48.114;11.522;2024-02-26T02:08:59;12.00;50.60
28358;DHT22;15605;48.114;11.522;2024-02-26T02:11:50;11.90;50.60
28358;DHT22;15605;48.114;11.522;2024-02-26T02:14:55;12.00;51.10
28358;DHT22;15605;48.114;11.522;2024-02-26T02:18:04;11.90;50.50
28358;DHT22;15605;48.114;11.522;2024-02-26T02:20:53;11.90;50.50
28358;DHT22;15605;48.114;11.522;2024-02-26T02:23:40;11.90;50.40
28358;DHT22;15605;48.114;11.522;2024-02-26T02:26:36;11.90;50.40
28358;DHT22;15605;48.114;11.522;2024-02-26T02:29:08;11.90;50.30
28358;DHT22;15605;48.114;11.522;2024-02-26T02:31:58;11.90;50.40
28358;DHT22;15605;48.114;11.522;2024-02-26T02:34:35;11.90;50.30
28358;DHT22;15605;48.114;11.522;2024-02-26T02:37:20;11.90;50.30
28358;DHT22;15605;48.114;11.522;2024-02-26T02:40:16;11.90;50.30
28358;DHT22;15605;48.114;11.522;2024-02-26T02:43:06;11.90;50.20
28358;DHT22;15605;48.114;11.522;2024-02-26T02:45:51;11.90;50.10
28358;DHT22;15605;48.114;11.522;2024-02-26T02:49:03;11.90;49.90
28358;DHT22;15605;48.114;11.522;2024-02-26T02:52:05;11.90;49.90
28358;DHT22;15605;48.114;11.522;2024-02-26T02:55:08;11.90;50.00
28358;DHT22;15605;48.114;11.522;2024-02-26T02:58:08;11.90;50.00
28358;DHT22;15605;48.114;11.522;2024-02-26T03:00:48;11.90;50.00
28358;DHT22;15605;48.114;11.522;2024-02-26T03:03:37;11.90;50.00
28358;DHT22;15605;48.114;11.522;2024-02-26T03:06:34;11.90;49.80
28358;DHT22;15605;48.114;11.522;2024-02-26T03:09:29;11.90;49.90
28358;DHT22;15605;48.114;11.522;2024-02-26T03:12:14;11.80;49.80
28358;DHT22;15605;48.114;11.522;2024-02-26T03:14:48;11.90;49.90
28358;DHT22;15605;48.114;11.522;2024-02-26T03:17:44;11.90;49.70
28358;DHT22;15605;48.114;11.522;2024-02-26T03:20:32;11.90;49.60
28358;DHT22;15605;48.114;11.522;2024-02-26T03:23:21;11.90;49.60
28358;DHT22;15605;48.114;11.522;2024-02-26T03:26:19;11.90;49.50
28358;DHT22;15605;48.114;11.522;2024-02-26T03:29:02;11.90;49.50
28358;DHT22;15605;48.114;11.522;2024-02-26T03:31:41;11.90;49.50
28358;DHT22;15605;48.114;11.522;2024-02-26T03:34:33;11.90;49.50
28358;DHT22;15605;48.114;11.522;2024-02-26T03:37:10;11.90;49.60
28358;DHT22;15605;48.114;11.522;2024-02-26T03:40:07;11.90;49.60
28358;DHT22;15605;48.114;11.522;2024-02-26T03:42:45;11.90;49.50
28358;DHT22;15605;48.114;11.522;2024-02-26T03:45:23;11.90;49.50
28358;DHT22;15605;48.114;11.522;2024-02-26T03:48:02;11.90;49.40
28358;DHT22;15605;48.114;11.522;2024-02-26T03:50:53;11.90;49.40
28358;DHT22;15605;48.114;11.522;2024-02-26T03:53:33;11.90;49.40
28358;DHT22;15605;48.114;11.522;2024-02-26T03:56:05;11.90;49.30
28358;DHT22;15605;48.114;11.522;2024-02-26T03:58:36;11.90;49.30
28358;DHT22;15605;48.114;11.522;2024-02-26T04:01:36;11.90;49.40
28358;DHT22;15605;48.114;11.522;2024-02-26T04:04:20;11.90;49.40
28358;DHT22;15605;48.114;11.522;2024-02-26T04:07:03;11.80;49.40
28358;DHT22;15605;48.114;11.522;2024-02-26T04:10:13;11.90;49.40
28358;DHT22;15605;48.114;11.522;2024-02-26T04:12:55;11.80;49.40
28358;DHT22;15605;48.114;11.522;2024-02-26T04:15:43;11.80;49.50
28358;DHT22;15605;48.114;11.522;2024-02-26T04:18:17;11.80;49.40
28358;DHT22;15605;48.114;11.522;2024-02-26T04:20:47;11.80;49.50
28358;DHT22;15605;48.114;11.522;2024-02-26T04:23:20;11.80;49.40
28358;DHT22;15605;48.114;11.522;2024-02-26T04:26:03;11.80;49.40
28358;DHT22;15605;48.114;11.522;2024-02-26T04:28:52;11.80;49.30
28358;DHT22;15605;48.114;11.522;2024-02-26T04:31:39;11.80;49.30
28358;DHT22;15605;48.114;11.522;2024-02-26T04:34:22;11.80;49.30
28358;DHT22;15605;48.114;11.522;2024-02-26T04:36:57;11.90;49.30
28358;DHT22;15605;48.114;11.522;2024-02-26T04:39:41;11.90;49.20
28358;DHT22;15605;48.114;11.522;2024-02-26T04:42:15;11.80;49.20
28358;DHT22;15605;48.114;11.522;2024-02-26T04:44:50;11.80;49.30
28358;DHT22;15605;48.114;11.522;2024-02-26T04:47:36;11.90;49.20
28358;DHT22;15605;48.114;11.522;2024-02-26T04:50:15;11.80;49.20
28358;DHT22;15605;48.114;11.522;2024-02-26T04:52:54;11.80;49.30
28358;DHT22;15605;48.114;11.522;2024-02-26T04:55:25;11.80;49.30
28358;DHT22;15605;48.114;11.522;2024-02-26T04:58:01;11.80;49.30
28358;DHT22;15605;48.114;11.522;2024-02-26T05:00:45;11.80;49.30
28358;DHT22;15605;48.114;11.522;2024-02-26T05:03:26;11.70;49.30
28358;DHT22;15605;48.114;11.522;2024-02-26T05:06:06;11.70;49.30
28358;DHT22;15605;48.114;11.522;2024-02-26T05:08:44;11.70;49.30
28358;DHT22;15605;48.114;11.522;2024-02-26T05:11:18;11.70;49.30
28358;DHT22;15605;48.114;11.522;2024-02-26T05:13:50;11.70;49.20
28358;DHT22;15605;48.114;11.522;2024-02-26T05:16:25;11.80;49.30
28358;DHT22;15605;48.114;11.522;2024-02-26T05:19:07;11.80;49.30
28358;DHT22;15605;48.114;11.522;2024-02-26T05:21:48;11.80;49.20
28358;DHT22;15605;48.114;11.522;2024-02-26T05:24:21;11.80;49.10
28358;DHT22;15605;48.114;11.522;2024-02-26T05:26:57;11.80;49.00
28358;DHT22;15605;48.114;11.522;2024-02-26T05:29:34;11.80;49.10
28358;DHT22;15605;48.114;11.522;2024-02-26T05:32:13;11.80;49.00
28358;DHT22;15605;48.114;11.522;2024-02-26T05:35:17;11.80;49.00
28358;DHT22;15605;48.114;11.522;2024-02-26T05:37:50;11.80;49.00
28358;DHT22;15605;48.114;11.522;2024-02-26T05:40:25;11.80;49.00
28358;DHT22;15605;48.114;11.522;2024-02-26T05:43:10;11.80;49.00
28358;DHT22;15605;48.114;11.522;2024-02-26T05:45:52;11.80;49.00
28358;DHT22;15605;48.114;11.522;2024-02-26T05:48:25;11.70;49.00
28358;DHT22;15605;48.114;11.522;2024-02-26T05:51:00;11.70;49.10
28358;DHT22;15605;48.114;11.522;2024-02-26T05:53:34;11.80;49.20
28358;DHT22;15605;48.114;11.522;2024-02-26T05:56:15;11.80;48.90
28358;DHT22;15605;48.114;11.522;2024-02-26T05:58:50;11.80;48.80
28358;DHT22;15605;48.114;11.522;2024-02-26T06:01:24;11.80;48.80
28358;DHT22;15605;48.114;11.522;2024-02-26T06:03:59;11.80;48.90
28358;DHT22;15605;48.114;11.522;2024-02-26T06:06:47;11.80;48.90
28358;DHT22;15605;48.114;11.522;2024-02-26T06:10:11;11.80;49.00
28358;DHT22;15605;48.114;11.522;2024-02-26T06:13:07;11.80;49.00
28358;DHT22;15605;48.114;11.522;2024-02-26T06:16:12;11.80;49.00
28358;DHT22;15605;48.114;11.522;2024-02-26T06:18:54;11.80;49.10
28358;DHT22;15605;48.114;11.522;2024-02-26T06:21:54;11.80;49.00
28358;DHT22;15605;48.114;11.522;2024-02-26T06:24:39;11.80;48.90
28358;DHT22;15605;48.114;11.522;2024-02-26T06:27:11;11.80;48.90
28358;DHT22;15605;48.114;11.522;2024-02-26T06:29:46;11.80;48.90
28358;DHT22;15605;48.114;11.522;2024-02-26T06:32:30;11.80;49.00
28358;DHT22;15605;48.114;11.522;2024-02-26T06:35:04;11.80;49.10
28358;DHT22;15605;48.114;11.522;2024-02-26T06:37:52;11.80;49.30
28358;DHT22;15605;48.114;11.522;2024-02-26T06:40:26;11.80;49.30
28358;DHT22;15605;48.114;11.522;2024-02-26T06:43:01;11.80;49.40
28358;DHT22;15605;48.114;11.522;2024-02-26T06:45:38;11.90;50.00
28358;DHT22;15605;48.114;11.522;2024-02-26T06:48:41;11.90;49.30
28358;DHT22;15605;48.114;11.522;2024-02-26T06:51:50;11.90;49.30
28358;DHT22;15605;48.114;11.522;2024-02-26T06:54:34;11.90;49.40
28358;DHT22;15605;48.114;11.522;2024-02-26T06:57:27;12.00;49.30
28358;DHT22;15605;48.114;11.522;2024-02-26T07:00:13;12.00;49.40
28358;DHT22;15605;48.114;11.522;2024-02-26T07:02:45;11.90;49.70
28358;DHT22;15605;48.114;11.522;2024-02-26T07:05:16;11.90;49.70
28358;DHT22;15605;48.114;11.522;2024-02-26T07:07:48;11.90;49.80
28358;DHT22;15605;48.114;11.522;2024-02-26T07:10:21;11.90;50.00
28358;DHT22;15605;48.114;11.522;2024-02-26T07:12:53;11.90;50.00
28358;DHT22;15605;48.114;11.522;2024-02-26T07:15:24;11.90;50.10
28358;DHT22;15605;48.114;11.522;2024-02-26T07:17:58;11.90;50.10
28358;DHT22;15605;48.114;11.522;2024-02-26T07:20:33;11.90;50.10
28358;DHT22;15605;48.114;11.522;2024-02-26T07:23:05;12.00;50.20
28358;DHT22;15605;48.114;11.522;2024-02-26T07:25:36;12.00;50.10
28358;DHT22;15605;48.114;11.522;2024-02-26T07:28:09;12.00;50.10
28358;DHT22;15605;48.114;11.522;2024-02-26T07:30:39;12.00;50.10
28358;DHT22;15605;48.114;11.522;2024-02-26T07:33:10;12.00;50.10
28358;DHT22;15605;48.114;11.522;2024-02-26T07:35:42;12.00;50.20
28358;DHT22;15605;48.114;11.522;2024-02-26T07:38:13;12.00;50.20
28358;DHT22;15605;48.114;11.522;2024-02-26T07:40:45;12.00;50.20
28358;DHT22;15605;48.114;11.522;2024-02-26T07:43:24;12.10;50.30
28358;DHT22;15605;48.114;11.522;2024-02-26T07:46:16;12.10;50.30
28358;DHT22;15605;48.114;11.522;2024-02-26T07:48:47;12.00;50.30
28358;DHT22;15605;48.114;11.522;2024-02-26T07:51:20;12.00;50.30
28358;DHT22;15605;48.114;11.522;2024-02-26T07:53:56;12.10;50.30
28358;DHT22;15605;48.114;11.522;2024-02-26T07:56:27;12.10;50.40
28358;DHT22;15605;48.114;11.522;2024-02-26T07:58:58;12.10;50.40
28358;DHT22;15605;48.114;11.522;2024-02-26T08:01:30;12.10;50.40
28358;DHT22;15605;48.114;11.522;2024-02-26T08:04:01;12.10;50.40
28358;DHT22;15605;48.114;11.522;2024-02-26T08:06:32;12.00;50.40
28358;DHT22;15605;48.114;11.522;2024-02-26T08:09:05;12.10;50.40
28358;DHT22;15605;48.114;11.522;2024-02-26T08:11:36;12.10;50.40
28358;DHT22;15605;48.114;11.522;2024-02-26T08:14:09;12.10;50.30
28358;DHT22;15605;48.114;11.522;2024-02-26T08:16:42;12.10;50.40
28358;DHT22;15605;48.114;11.522;2024-02-26T08:19:21;12.10;50.40
28358;DHT22;15605;48.114;11.522;2024-02-26T08:21:54;12.10;50.50
28358;DHT22;15605;48.114;11.522;2024-02-26T08:24:25;12.10;50.50
28358;DHT22;15605;48.114;11.522;2024-02-26T08:26:57;12.10;50.50
28358;DHT22;15605;48.114;11.522;2024-02-26T08:29:31;12.10;50.60
28358;DHT22;15605;48.114;11.522;2024-02-26T08:32:03;12.20;50.60
28358;DHT22;15605;48.114;11.522;2024-02-26T08:34:34;12.20;50.60
28358;DHT22;15605;48.114;11.522;2024-02-26T08:37:08;12.20;50.60
28358;DHT22;15605;48.114;11.522;2024-02-26T08:39:40;12.10;50.60
28358;DHT22;15605;48.114;11.522;2024-02-26T08:42:09;12.10;50.50
28358;DHT22;15605;48.114;11.522;2024-02-26T08:44:41;12.10;50.60
28358;DHT22;15605;48.114;11.522;2024-02-26T08:47:16;12.20;50.80
28358;DHT22;15605;48.114;11.522;2024-02-26T08:49:46;12.20;50.70
28358;DHT22;15605;48.114;11.522;2024-02-26T08:52:18;12.20;50.70
28358;DHT22;15605;48.114;11.522;2024-02-26T08:54:49;12.20;50.80
28358;DHT22;15605;48.114;11.522;2024-02-26T08:57:24;12.20;50.80
28358;DHT22;15605;48.114;11.522;2024-02-26T09:00:00;12.20;50.80
28358;DHT22;15605;48.114;11.522;2024-02-26T09:02:37;12.20;50.70
28358;DHT22;15605;48.114;11.522;2024-02-26T09:05:16;12.20;50.70
28358;DHT22;15605;48.114;11.522;2024-02-26T09:07:50;12.20;50.80
28358;DHT22;15605;48.114;11.522;2024-02-26T09:10:24;12.20;50.80
28358;DHT22;15605;48.114;11.522;2024-02-26T09:12:56;12.20;50.80
28358;DHT22;15605;48.114;11.522;2024-02-26T09:15:28;12.20;50.80
28358;DHT22;15605;48.114;11.522;2024-02-26T09:18:06;12.20;50.80
28358;DHT22;15605;48.114;11.522;2024-02-26T09:20:55;12.20;50.90
28358;DHT22;15605;48.114;11.522;2024-02-26T09:23:27;12.20;50.80
28358;DHT22;15605;48.114;11.522;2024-02-26T09:26:01;12.20;50.80
28358;DHT22;15605;48.114;11.522;2024-02-26T09:28:33;12.20;50.90
28358;DHT22;15605;48.114;11.522;2024-02-26T09:31:25;12.30;50.90
28358;DHT22;15605;48.114;11.522;2024-02-26T09:33:58;12.20;50.80
28358;DHT22;15605;48.114;11.522;2024-02-26T09:36:35;12.30;50.90
28358;DHT22;15605;48.114;11.522;2024-02-26T09:39:08;12.30;50.80
28358;DHT22;15605;48.114;11.522;2024-02-26T09:41:47;12.30;50.70
28358;DHT22;15605;48.114;11.522;2024-02-26T09:44:24;12.30;50.70
28358;DHT22;15605;48.114;11.522;2024-02-26T09:46:56;12.30;50.80
28358;DHT22;15605;48.114;11.522;2024-02-26T09:49:28;12.30;50.80
28358;DHT22;15605;48.114;11.522;2024-02-26T09:51:59;12.30;50.80
28358;DHT22;15605;48.114;11.522;2024-02-26T09:54:36;12.40;50.80
28358;DHT22;15605;48.114;11.522;2024-02-26T09:57:15;12.40;50.80
28358;DHT22;15605;48.114;11.522;2024-02-26T09:59:57;12.40;50.80
28358;DHT22;15605;48.114;11.522;2024-02-26T10:02:38;12.40;50.70
28358;DHT22;15605;48.114;11.522;2024-02-26T10:05:18;12.40;50.80
28358;DHT22;15605;48.114;11.522;2024-02-26T10:07:55;12.30;50.90
28358;DHT22;15605;48.114;11.522;2024-02-26T10:10:29;12.40;51.10
28358;DHT22;15605;48.114;11.522;2024-02-26T10:13:04;12.30;51.10
28358;DHT22;15605;48.114;11.522;2024-02-26T10:15:41;12.30;51.20
28358;DHT22;15605;48.114;11.522;2024-02-26T10:18:15;12.30;51.30
28358;DHT22;15605;48.114;11.522;2024-02-26T10:21:01;12.30;51.30
28358;DHT22;15605;48.114;11.522;2024-02-26T10:23:34;12.30;51.30
28358;DHT22;15605;48.114;11.522;2024-02-26T10:26:07;12.20;51.30
28358;DHT22;15605;48.114;11.522;2024-02-26T10:28:42;12.30;51.30
28358;DHT22;15605;48.114;11.522;2024-02-26T10:31:16;12.30;51.30
28358;DHT22;15605;48.114;11.522;2024-02-26T10:33:50;12.30;51.40
28358;DHT22;15605;48.114;11.522;2024-02-26T10:36:27;12.30;51.40
28358;DHT22;15605;48.114;11.522;2024-02-26T10:39:01;12.30;51.40
28358;DHT22;15605;48.114;11.522;2024-02-26T10:41:33;12.30;51.40
28358;DHT22;15605;48.114;11.522;2024-02-26T10:44:09;12.30;51.40
28358;DHT22;15605;48.114;11.522;2024-02-26T10:46:47;12.30;51.40
28358;DHT22;15605;48.114;11.522;2024-02-26T10:49:31;12.30;51.40
28358;DHT22;15605;48.114;11.522;2024-02-26T10:52:05;12.30;51.40
28358;DHT22;15605;48.114;11.522;2024-02-26T10:54:37;12.30;51.40
28358;DHT22;15605;48.114;11.522;2024-02-26T10:57:10;12.30;51.40
28358;DHT22;15605;48.114;11.522;2024-02-26T10:59:45;12.30;51.40
28358;DHT22;15605;48.114;11.522;2024-02-26T11:02:16;12.30;51.30
28358;DHT22;15605;48.114;11.522;2024-02-26T11:04:48;12.30;51.40
28358;DHT22;15605;48.114;11.522;2024-02-26T11:07:18;12.30;51.30
28358;DHT22;15605;48.114;11.522;2024-02-26T11:09:49;12.30;51.30
28358;DHT22;15605;48.114;11.522;2024-02-26T11:12:27;12.30;51.40
28358;DHT22;15605;48.114;11.522;2024-02-26T11:14:58;12.30;51.40
28358;DHT22;15605;48.114;11.522;2024-02-26T11:17:29;12.40;51.40
28358;DHT22;15605;48.114;11.522;2024-02-26T11:20:03;12.40;51.30
28358;DHT22;15605;48.114;11.522;2024-02-26T11:22:36;12.40;51.40
28358;DHT22;15605;48.114;11.522;2024-02-26T11:25:08;12.40;51.30
28358;DHT22;15605;48.114;11.522;2024-02-26T11:27:48;12.40;51.30
28358;DHT22;15605;48.114;11.522;2024-02-26T11:30:23;12.40;51.30
28358;DHT22;15605;48.114;11.522;2024-02-26T11:32:59;12.40;51.30
28358;DHT22;15605;48.114;11.522;2024-02-26T11:35:31;12.40;51.30
28358;DHT22;15605;48.114;11.522;2024-02-26T11:38:16;12.40;51.40
28358;DHT22;15605;48.114;11.522;2024-02-26T11:40:48;12.40;51.40
28358;DHT22;15605;48.114;11.522;2024-02-26T11:44:04;12.40;51.40
28358;DHT22;15605;48.114;11.522;2024-02-26T11:46:31;12.30;51.40
28358;DHT22;15605;48.114;11.522;2024-02-26T11:49:01;12.40;51.40
28358;DHT22;15605;48.114;11.522;2024-02-26T11:51:36;12.40;51.30
28358;DHT22;15605;48.114;11.522;2024-02-26T11:54:06;12.40;51.30
28358;DHT22;15605;48.114;11.522;2024-02-26T11:56:35;12.40;51.40
28358;DHT22;15605;48.114;11.522;2024-02-26T11:59:13;12.30;51.40
28358;DHT22;15605;48.114;11.522;2024-02-26T12:02:02;12.30;51.40
28358;DHT22;15605;48.114;11.522;2024-02-26T12:04:32;12.40;51.50
28358;DHT22;15605;48.114;11.522;2024-02-26T12:07:06;12.30;51.50
28358;DHT22;15605;48.114;11.522;2024-02-26T12:09:40;12.40;51.50
28358;DHT22;15605;48.114;11.522;2024-02-26T12:12:17;12.40;51.50
28358;DHT22;15605;48.114;11.522;2024-02-26T12:14:55;12.40;51.50
28358;DHT22;15605;48.114;11.522;2024-02-26T12:17:28;12.40;51.50
28358;DHT22;15605;48.114;11.522;2024-02-26T12:20:13;12.40;51.50
28358;DHT22;15605;48.114;11.522;2024-02-26T12:22:46;12.40;51.50
28358;DHT22;15605;48.114;11.522;2024-02-26T12:25:16;12.40;51.50
28358;DHT22;15605;48.114;11.522;2024-02-26T12:27:48;12.40;51.40
28358;DHT22;15605;48.114;11.522;2024-02-26T12:30:25;12.40;51.40
28358;DHT22;15605;48.114;11.522;2024-02-26T12:33:04;12.40;51.40
28358;DHT22;15605;48.114;11.522;2024-02-26T12:35:36;12.40;51.40
28358;DHT22;15605;48.114;11.522;2024-02-26T12:38:10;12.40;51.50
28358;DHT22;15605;48.114;11.522;2024-02-26T12:40:50;12.40;51.50
28358;DHT22;15605;48.114;11.522;2024-02-26T12:43:21;12.40;51.40
28358;DHT22;15605;48.114;11.522;2024-02-26T12:46:06;12.40;51.40
28358;DHT22;15605;48.114;11.522;2024-02-26T12:48:37;12.40;51.40
28358;DHT22;15605;48.114;11.522;2024-02-26T12:51:09;12.40;51.40
28358;DHT22;15605;48.114;11.522;2024-02-26T12:53:43;12.40;51.40
28358;DHT22;15605;48.114;11.522;2024-02-26T12:56:15;12.50;51.40
28358;DHT22;15605;48.114;11.522;2024-02-26T12:58:46;12.40;51.40
28358;DHT22;15605;48.114;11.522;2024-02-26T13:01:16;12.40;51.40
28358;DHT22;15605;48.114;11.522;2024-02-26T13:04:04;12.40;51.40
28358;DHT22;15605;48.114;11.522;2024-02-26T13:06:36;12.50;51.40
28358;DHT22;15605;48.114;11.522;2024-02-26T13:09:08;12.40;51.40
28358;DHT22;15605;48.114;11.522;2024-02-26T13:11:44;12.50;51.50
28358;DHT22;15605;48.114;11.522;2024-02-26T13:14:23;12.40;51.40
28358;DHT22;15605;48.114;11.522;2024-02-26T13:17:07;12.40;51.40
28358;DHT22;15605;48.114;11.522;2024-02-26T13:19:48;12.40;51.40
28358;DHT22;15605;48.114;11.522;2024-02-26T13:22:27;12.40;51.40
28358;DHT22;15605;48.114;11.522;2024-02-26T13:24:59;12.40;51.50
28358;DHT22;15605;48.114;11.522;2024-02-26T13:27:33;12.40;51.50
28358;DHT22;15605;48.114;11.522;2024-02-26T13:30:12;12.40;51.50
28358;DHT22;15605;48.114;11.522;2024-02-26T13:32:44;12.40;51.50
28358;DHT22;15605;48.114;11.522;2024-02-26T13:35:23;12.40;51.50
28358;DHT22;15605;48.114;11.522;2024-02-26T13:38:12;12.40;51.40
28358;DHT22;15605;48.114;11.522;2024-02-26T13:40:49;12.40;51.50
28358;DHT22;15605;48.114;11.522;2024-02-26T13:43:23;12.40;51.50
28358;DHT22;15605;48.114;11.522;2024-02-26T13:45:58;12.40;51.50
28358;DHT22;15605;48.114;11.522;2024-02-26T13:48:33;12.40;51.40
28358;DHT22;15605;48.114;11.522;2024-02-26T13:51:07;12.40;51.50
28358;DHT22;15605;48.114;11.522;2024-02-26T13:53:45;12.40;51.50
28358;DHT22;15605;48.114;11.522;2024-02-26T13:56:44;12.40;51.60
28358;DHT22;15605;48.114;11.522;2024-02-26T13:59:21;12.40;51.50
28358;DHT22;15605;48.114;11.522;2024-02-26T14:01:52;12.40;51.60
28358;DHT22;15605;48.114;11.522;2024-02-26T14:04:24;12.40;51.60
28358;DHT22;15605;48.114;11.522;2024-02-26T14:06:57;12.40;51.50
28358;DHT22;15605;48.114;11.522;2024-02-26T14:09:33;12.40;51.50
28358;DHT22;15605;48.114;11.522;2024-02-26T14:12:06;12.40;51.60
28358;DHT22;15605;48.114;11.522;2024-02-26T14:14:40;12.40;51.60
28358;DHT22;15605;48.114;11.522;2024-02-26T14:17:11;12.40;51.70
28358;DHT22;15605;48.114;11.522;2024-02-26T14:19:43;12.40;51.70
28358;DHT22;15605;48.114;11.522;2024-02-26T14:22:14;12.40;51.60
28358;DHT22;15605;48.114;11.522;2024-02-26T14:24:49;12.40;51.60
28358;DHT22;15605;48.114;11.522;2024-02-26T14:27:21;12.50;51.70
28358;DHT22;15605;48.114;11.522;2024-02-26T14:29:52;12.40;51.80
28358;DHT22;15605;48.114;11.522;2024-02-26T14:32:24;12.40;51.70
28358;DHT22;15605;48.114;11.522;2024-02-26T14:34:58;12.40;51.70
28358;DHT22;15605;48.114;11.522;2024-02-26T14:37:30;12.40;51.70
28358;DHT22;15605;48.114;11.522;2024-02-26T14:40:07;12.40;51.70
28358;DHT22;15605;48.114;11.522;2024-02-26T14:42:39;12.40;51.70
28358;DHT22;15605;48.114;11.522;2024-02-26T14:48:32;12.40;51.70
28358;DHT22;15605;48.114;11.522;2024-02-26T14:51:05;12.40;51.70
28358;DHT22;15605;48.114;11.522;2024-02-26T14:53:47;12.40;51.40
28358;DHT22;15605;48.114;11.522;2024-02-26T14:56:38;12.40;51.50
28358;DHT22;15605;48.114;11.522;2024-02-26T15:06:07;12.30;51.80
28358;DHT22;15605;48.114;11.522;2024-02-26T15:12:06;12.30;52.00
28358;DHT22;15605;48.114;11.522;2024-02-26T15:14:38;12.30;52.10
28358;DHT22;15605;48.114;11.522;2024-02-26T15:17:21;12.40;52.20
28358;DHT22;15605;48.114;11.522;2024-02-26T15:23:31;12.30;52.50
28358;DHT22;15605;48.114;11.522;2024-02-26T15:26:17;12.40;52.50
28358;DHT22;15605;48.114;11.522;2024-02-26T15:28:56;12.40;52.50
28358;DHT22;15605;48.114;11.522;2024-02-26T15:31:45;12.50;52.50
28358;DHT22;15605;48.114;11.522;2024-02-26T15:34:33;12.40;52.60
28358;DHT22;15605;48.114;11.522;2024-02-26T15:40:39;12.50;52.70
28358;DHT22;15605;48.114;11.522;2024-02-26T15:43:13;12.50;52.60
28358;DHT22;15605;48.114;11.522;2024-02-26T15:45:45;12.60;52.70
28358;DHT22;15605;48.114;11.522;2024-02-26T15:48:16;12.60;52.70
28358;DHT22;15605;48.114;11.522;2024-02-26T15:50:47;12.60;52.70
28358;DHT22;15605;48.114;11.522;2024-02-26T15:53:18;12.60;52.60
28358;DHT22;15605;48.114;11.522;2024-02-26T15:55:50;12.60;52.60
28358;DHT22;15605;48.114;11.522;2024-02-26T15:58:22;12.60;52.70
28358;DHT22;15605;48.114;11.522;2024-02-26T16:00:52;12.60;52.70
28358;DHT22;15605;48.114;11.522;2024-02-26T16:03:23;12.60;52.80
28358;DHT22;15605;48.114;11.522;2024-02-26T16:05:54;12.60;52.80
28358;DHT22;15605;48.114;11.522;2024-02-26T16:08:28;12.60;52.90
28358;DHT22;15605;48.114;11.522;2024-02-26T16:11:09;12.60;52.80
28358;DHT22;15605;48.114;11.522;2024-02-26T16:13:50;12.60;52.90
28358;DHT22;15605;48.114;11.522;2024-02-26T16:16:24;12.60;53.00
28358;DHT22;15605;48.114;11.522;2024-02-26T16:19:05;12.60;53.00
28358;DHT22;15605;48.114;11.522;2024-02-26T16:21:39;12.60;53.00
28358;DHT22;15605;48.114;11.522;2024-02-26T16:24:12;12.50;53.00
28358;DHT22;15605;48.114;11.522;2024-02-26T16:26:54;12.60;53.00
28358;DHT22;15605;48.114;11.522;2024-02-26T16:29:26;12.50;53.00
28358;DHT22;15605;48.114;11.522;2024-02-26T16:32:12;12.50;53.00
28358;DHT22;15605;48.114;11.522;2024-02-26T16:34:46;12.50;53.10
28358;DHT22;15605;48.114;11.522;2024-02-26T16:37:21;12.50;53.10
28358;DHT22;15605;48.114;11.522;2024-02-26T16:39:57;12.40;53.20
28358;DHT22;15605;48.114;11.522;2024-02-26T16:42:31;12.50;53.10
28358;DHT22;15605;48.114;11.522;2024-02-26T16:45:03;12.60;53.00
28358;DHT22;15605;48.114;11.522;2024-02-26T16:47:34;12.60;53.00
28358;DHT22;15605;48.114;11.522;2024-02-26T16:50:05;12.60;53.00
28358;DHT22;15605;48.114;11.522;2024-02-26T16:52:42;12.60;53.00